createdAt,value
2022-12-22T07:00:57.190Z,10.2
2022-12-22T07:07:20.161Z,10.22
2022-12-22T07:13:40.186Z,10.22
2022-12-22T07:20:03.207Z,10.19
2022-12-22T07:26:23.168Z,10.18
2022-12-22T07:32:46.224Z,10.16
2022-12-22T07:39:06.206Z,10.12
2022-12-22T07:45:29.183Z,10.07
2022-12-22T07:51:49.184Z,10.04
2022-12-22T07:58:12.195Z,10.02
2022-12-22T08:04:32.276Z,10.01
2022-12-22T08:10:55.184Z,10.02
2022-12-22T08:17:15.246Z,10.04
2022-12-22T08:23:38.183Z,10.07
2022-12-22T08:29:58.175Z,10.12
2022-12-22T08:36:21.280Z,10.16
2022-12-22T08:42:41.156Z,10.19
2022-12-22T08:49:04.211Z,10.19
2022-12-22T08:55:24.215Z,10.21
2022-12-22T09:01:47.309Z,10.21
2022-12-22T09:08:07.184Z,10.23
2022-12-22T09:14:30.192Z,10.23
2022-12-22T09:20:50.213Z,10.25
2022-12-22T09:27:13.254Z,10.28
2022-12-22T09:33:33.197Z,10.3
2022-12-22T09:39:56.227Z,10.3
2022-12-22T09:46:16.650Z,10.3
2022-12-22T09:52:39.226Z,10.28
2022-12-22T09:58:59.188Z,10.27
2022-12-22T10:05:22.160Z,10.26
2022-12-22T10:11:42.216Z,10.26
2022-12-22T10:18:05.165Z,10.28
2022-12-22T10:24:25.233Z,10.32
2022-12-22T10:30:48.235Z,10.39
2022-12-22T10:37:08.176Z,10.45
2022-12-22T10:43:31.191Z,10.46
2022-12-22T10:49:47.111Z,10.5
2022-12-22T10:56:06.177Z,10.53
2022-12-22T11:02:26.288Z,10.51
2022-12-22T11:08:51.378Z,10.46
2022-12-22T11:15:09.233Z,10.47
2022-12-22T11:21:32.194Z,10.47
2022-12-22T11:27:52.203Z,10.7
2022-12-22T11:34:20.761Z,11.11
2022-12-22T11:40:35.204Z,11.54
2022-12-22T11:46:58.356Z,11.75
2022-12-22T11:53:18.160Z,11.77
2022-12-22T11:59:41.212Z,11.61
2022-12-22T12:06:01.226Z,11.45
2022-12-22T12:12:24.194Z,11.3
2022-12-22T12:35:29.727Z,11.07
2022-12-22T12:41:49.154Z,11.02
2022-12-22T12:48:12.195Z,10.95
2022-12-22T12:54:32.189Z,10.92
2022-12-22T13:00:58.765Z,10.89
2022-12-22T13:07:15.200Z,10.82
2022-12-22T13:13:38.211Z,10.79
2022-12-22T13:19:58.299Z,10.79
2022-12-22T13:26:21.363Z,10.79
2022-12-22T13:32:41.388Z,10.82
2022-12-22T13:39:04.184Z,10.81
2022-12-22T13:45:24.199Z,10.82
2022-12-22T13:51:47.252Z,10.82
2022-12-22T13:58:07.171Z,10.82
2022-12-22T14:04:30.452Z,10.86
2022-12-22T14:10:50.222Z,10.97
2022-12-22T14:17:13.156Z,10.95
2022-12-22T14:23:33.200Z,10.9
2022-12-22T14:29:56.185Z,10.85
2022-12-22T14:36:16.210Z,10.81
2022-12-22T14:42:39.162Z,10.67
2022-12-22T14:48:59.195Z,10.49
2022-12-22T14:55:22.224Z,10.4
2022-12-22T15:01:42.299Z,10.3
2022-12-22T15:08:07.697Z,10.18
2022-12-22T15:14:25.396Z,10.04
2022-12-22T15:20:48.243Z,9.87
2022-12-22T15:27:17.290Z,9.75
2022-12-22T15:33:40.186Z,9.69
2022-12-22T15:40:00.231Z,9.65
2022-12-22T15:46:23.294Z,9.63
2022-12-22T15:52:43.182Z,9.61
2022-12-22T15:59:06.203Z,9.58
2022-12-22T16:05:26.233Z,9.55
2022-12-22T16:11:49.236Z,9.54
2022-12-22T16:18:09.658Z,9.52
2022-12-22T16:24:32.228Z,9.49
2022-12-22T16:30:52.267Z,9.43
2022-12-22T16:37:15.218Z,9.39
2022-12-22T16:50:55.205Z,9.33
2022-12-22T16:57:15.163Z,9.31
2022-12-22T17:03:38.237Z,9.35
2022-12-22T17:09:58.216Z,9.49
2022-12-22T17:16:21.392Z,9.62
2022-12-22T17:22:41.169Z,9.75
2022-12-22T17:29:04.213Z,9.86
2022-12-22T17:35:24.217Z,9.94
2022-12-22T17:59:05.121Z,10.12
2022-12-22T18:05:28.491Z,10.16
2022-12-22T18:11:48.514Z,10.19
2022-12-22T18:18:11.211Z,10.2
2022-12-22T18:24:31.147Z,10.22
2022-12-22T18:30:54.200Z,10.3
2022-12-22T18:37:14.342Z,10.37
2022-12-22T18:43:37.196Z,10.4
2022-12-22T18:49:57.182Z,10.41
2022-12-22T18:56:20.177Z,10.38
2022-12-22T19:02:40.341Z,10.31
2022-12-22T19:09:03.162Z,10.19
2022-12-22T19:15:23.217Z,10.1
2022-12-22T19:21:46.165Z,10.01
2022-12-22T19:28:06.173Z,9.91
2022-12-22T19:34:29.219Z,9.8
2022-12-22T19:40:49.181Z,9.69
2022-12-22T19:47:12.188Z,9.59
2022-12-22T19:53:32.233Z,9.5
2022-12-22T19:59:55.228Z,9.47
2022-12-22T20:06:15.215Z,9.44
2022-12-22T20:12:38.196Z,9.42
2022-12-22T20:18:58.211Z,9.39
2022-12-22T20:25:21.166Z,9.38
2022-12-22T20:31:41.196Z,9.37
2022-12-22T20:38:04.199Z,9.34
2022-12-22T20:44:24.155Z,9.32
2022-12-22T20:50:47.337Z,9.3
2022-12-22T20:57:07.195Z,9.29
2022-12-22T21:03:30.248Z,9.27
2022-12-22T21:09:50.196Z,9.27
2022-12-22T21:16:13.210Z,9.26
2022-12-22T21:22:33.174Z,9.25
2022-12-22T21:28:56.224Z,9.25
2022-12-22T21:35:16.187Z,9.24
2022-12-22T21:41:39.194Z,9.23
2022-12-22T21:47:59.208Z,9.21
2022-12-22T21:54:22.182Z,9.21
2022-12-22T22:00:42.175Z,9.21
2022-12-22T22:07:05.182Z,9.2
2022-12-22T22:13:25.183Z,9.21
2022-12-22T22:19:48.181Z,9.21
2022-12-22T22:26:08.193Z,9.22
2022-12-22T22:32:31.216Z,9.24
2022-12-22T22:38:51.157Z,9.25
2022-12-22T22:45:14.215Z,9.26
2022-12-22T22:51:34.172Z,9.26
2022-12-22T22:57:57.192Z,9.25
2022-12-22T23:20:54.193Z,9.24
2022-12-22T23:27:14.176Z,9.22
